Skiros, Greece
Current Conditions -  °F | °C
As of 10:20 PM on Monday 22 Dec 2014 (Local Time) from LGAV Reporting Station
Clear Clear  
Wind Chill: 38°   Ceiling: Unl
Heat Index: 41°   Visibility: 6mi
Dew Point: 30°   Wind: 5mph
Humidity: 65%   Direction: 280°W
Pressure: 30.36"   Gusts: NA
Location:  38.9°N, 24.56°E
Report Text: LGAV 221920Z 28004KT CAVOK 05/M01 Q1028 NOSIG
Loading
Personal Weather Stations






























Interactive Weather Map New forecast layout! Learn more

10-Day Weather Forecast

Advertisements
Track Severe Weather on mobile